ADDS METAR Data INFO
IDs: Format: Raw Decoded Include TAF

Data at: 0112 UTC 24 Aug 2017

KCPU 240055Z AUTO 30011G16KT 10SM CLR 33/15 A2986 RMK AO2 T03250146